CheckWX is a tool to help pilots better visualize weather data.  It is not intended as a substitute for an official pre-flight weather briefing.

01:53:32 UTC

KFST TAF
Fort Stockton-Pecos County Airport
Fort Stockton, Texas, USA
KFST 182320Z 1900/1924 13008KT P6SM OVC080 FM191300 14009KT P6SM FEW250

Mar-19@
00:00 UTC

Mar-19 @ 00:00 UTC

Mar-19@
13:00 UTC

Mar-19 @ 13:00 UTC

KFST 182320Z 1900/1924 13008KT P6SM OVC080
Wind
  • 130° at 8 KTS
Cloud Levels
  • Overcast at 8,000' AGL

Mar-19@
13:00 UTC

Mar-19 @ 13:00 UTC

Mar-20@
00:00 UTC

Mar-20 @ 00:00 UTC

FM191300 14009KT P6SM FEW250

From

From Standard forecast or significant change

Wind
  • 140° at 9 KTS
Cloud Levels
  • Few at 25,000' AGL